createdAt,value
2023-05-19T00:01:19.505Z,12.10
2023-05-19T00:04:07.133Z,12.10
2023-05-19T00:06:54.644Z,12.10
2023-05-19T00:09:41.751Z,12.10
2023-05-19T00:12:29.064Z,12.10
2023-05-19T00:15:16.388Z,12.10
2023-05-19T00:18:03.404Z,12.10
2023-05-19T00:20:52.382Z,12.00
2023-05-19T00:23:39.212Z,12.00
2023-05-19T00:26:27.391Z,12.00
2023-05-19T00:29:18.593Z,12.00
2023-05-19T00:32:06.083Z,12.00
2023-05-19T00:34:52.994Z,11.90
2023-05-19T00:37:39.789Z,11.90
2023-05-19T00:40:29.185Z,11.90
2023-05-19T00:43:16.167Z,11.90
2023-05-19T00:46:03.450Z,11.90
2023-05-19T00:48:50.407Z,11.90
2023-05-19T00:51:37.466Z,11.90
2023-05-19T00:54:24.418Z,11.90
2023-05-19T00:57:11.888Z,11.80
2023-05-19T00:59:59.014Z,11.80
2023-05-19T01:02:46.102Z,11.80
2023-05-19T01:05:33.371Z,11.80
2023-05-19T01:08:20.447Z,11.80
2023-05-19T01:11:08.406Z,11.80
2023-05-19T01:13:56.118Z,11.80
2023-05-19T01:17:11.721Z,11.80
2023-05-19T01:20:26.050Z,11.70
2023-05-19T01:23:21.535Z,11.70
2023-05-19T01:26:46.302Z,11.70
2023-05-19T01:30:07.099Z,11.70
2023-05-19T01:32:57.335Z,11.70
2023-05-19T01:35:45.821Z,11.70
2023-05-19T01:38:34.480Z,11.80
2023-05-19T01:41:23.072Z,11.70
2023-05-19T01:44:10.900Z,11.70
2023-05-19T01:46:57.988Z,11.70
2023-05-19T01:49:44.874Z,11.70
2023-05-19T01:52:31.899Z,11.60
2023-05-19T01:55:19.102Z,11.60
2023-05-19T01:58:11.422Z,11.60
2023-05-19T02:01:06.882Z,11.60
2023-05-19T02:04:24.822Z,11.50
2023-05-19T02:07:40.398Z,11.50
2023-05-19T02:10:31.850Z,11.40
2023-05-19T02:13:22.812Z,11.40
2023-05-19T02:16:11.722Z,11.40
2023-05-19T02:19:00.192Z,11.40
2023-05-19T02:21:47.026Z,11.30
2023-05-19T02:24:33.853Z,11.20
2023-05-19T02:27:21.336Z,11.20
2023-05-19T02:30:09.390Z,11.10
2023-05-19T02:32:56.247Z,11.10
2023-05-19T02:35:43.257Z,11.10
2023-05-19T02:38:30.099Z,11.00
2023-05-19T02:41:16.915Z,11.00
2023-05-19T02:44:03.989Z,10.90
2023-05-19T02:46:51.012Z,10.90
2023-05-19T02:49:37.981Z,10.80
2023-05-19T02:52:25.022Z,10.80
2023-05-19T02:55:17.072Z,10.80
2023-05-19T02:58:04.238Z,10.70
2023-05-19T03:00:51.496Z,10.70
2023-05-19T03:03:38.447Z,10.70
2023-05-19T03:06:25.379Z,10.70
2023-05-19T03:09:13.241Z,10.60
2023-05-19T03:12:04.083Z,10.60
2023-05-19T03:14:51.318Z,10.70
2023-05-19T03:17:39.426Z,10.70
2023-05-19T03:20:26.348Z,10.70
2023-05-19T03:23:13.282Z,10.70
2023-05-19T03:26:00.160Z,10.70
2023-05-19T03:28:47.021Z,10.70
2023-05-19T03:31:33.837Z,10.60
2023-05-19T03:34:22.455Z,10.70
2023-05-19T03:37:10.752Z,10.60
2023-05-19T03:39:57.648Z,10.60
2023-05-19T03:42:44.574Z,10.60
2023-05-19T03:45:31.450Z,10.50
2023-05-19T03:48:21.039Z,10.60
2023-05-19T03:51:09.075Z,10.60
2023-05-19T03:53:56.189Z,10.50
2023-05-19T03:56:43.749Z,10.50
2023-05-19T03:59:31.372Z,10.50
2023-05-19T04:02:18.270Z,10.50
2023-05-19T04:05:05.495Z,10.50
2023-05-19T04:07:52.353Z,10.40
2023-05-19T04:10:39.216Z,10.40
2023-05-19T04:13:26.254Z,10.30
2023-05-19T04:16:13.606Z,10.40
2023-05-19T04:19:00.845Z,10.40
2023-05-19T04:21:47.719Z,10.40
2023-05-19T04:24:34.859Z,10.30
2023-05-19T04:27:22.227Z,10.30
2023-05-19T04:30:09.465Z,10.40
2023-05-19T04:32:58.228Z,10.40
2023-05-19T04:35:45.263Z,10.40
2023-05-19T04:38:32.313Z,10.40
2023-05-19T04:41:19.260Z,10.40
2023-05-19T04:44:10.090Z,10.50
2023-05-19T04:46:58.456Z,10.50
2023-05-19T04:49:46.058Z,10.50
2023-05-19T04:52:33.193Z,10.50
2023-05-19T04:55:20.314Z,10.50
2023-05-19T04:58:07.627Z,10.50
2023-05-19T05:00:58.764Z,10.50
2023-05-19T05:03:45.636Z,10.60
2023-05-19T05:06:33.091Z,10.60
2023-05-19T05:09:20.108Z,10.60
2023-05-19T05:12:08.097Z,10.70
2023-05-19T05:14:55.357Z,10.80
2023-05-19T05:17:42.513Z,10.80
2023-05-19T05:20:29.867Z,10.90
2023-05-19T05:23:17.037Z,10.90
2023-05-19T05:26:15.820Z,10.90
2023-05-19T05:29:03.787Z,11.00
2023-05-19T05:31:50.747Z,11.00
2023-05-19T05:34:39.852Z,11.10
2023-05-19T05:37:26.732Z,11.20
2023-05-19T05:40:13.688Z,11.20
2023-05-19T05:43:00.642Z,11.30
2023-05-19T05:45:47.530Z,11.40
2023-05-19T05:48:35.015Z,11.50
2023-05-19T05:51:22.979Z,11.60
2023-05-19T05:54:12.621Z,11.60
2023-05-19T05:56:59.851Z,11.70
2023-05-19T05:59:47.306Z,11.80
2023-05-19T06:02:34.356Z,11.90
2023-05-19T06:05:21.716Z,11.90
2023-05-19T06:08:08.605Z,12.00
2023-05-19T06:10:55.509Z,12.00
2023-05-19T06:13:42.431Z,12.10
2023-05-19T06:16:29.475Z,12.20
2023-05-19T06:19:16.608Z,12.20
2023-05-19T06:22:03.895Z,12.30
2023-05-19T06:24:50.900Z,12.40
2023-05-19T06:27:37.810Z,12.40
2023-05-19T06:30:24.631Z,12.50
2023-05-19T06:33:11.919Z,12.50
2023-05-19T06:35:59.563Z,12.60
2023-05-19T06:38:46.462Z,12.70
2023-05-19T06:41:33.394Z,12.80
2023-05-19T06:44:21.215Z,12.90
2023-05-19T06:47:08.358Z,12.90
2023-05-19T06:49:55.666Z,13.00
2023-05-19T06:52:42.925Z,13.00
2023-05-19T06:55:30.583Z,13.10
2023-05-19T06:58:17.680Z,13.20
2023-05-19T07:01:04.645Z,13.30
2023-05-19T07:03:51.659Z,13.30
2023-05-19T07:06:38.606Z,13.40
2023-05-19T07:09:25.668Z,13.40
2023-05-19T07:12:12.510Z,13.40
2023-05-19T07:14:59.377Z,13.50
2023-05-19T07:17:46.377Z,13.50
2023-05-19T07:20:33.524Z,13.50
2023-05-19T07:23:20.625Z,13.60
2023-05-19T07:26:07.431Z,13.70
2023-05-19T07:28:54.354Z,13.80
2023-05-19T07:31:41.392Z,13.80
2023-05-19T07:34:28.369Z,14.00
2023-05-19T07:37:16.662Z,14.10
2023-05-19T07:40:04.041Z,14.40
2023-05-19T07:42:50.953Z,14.60
2023-05-19T07:45:38.555Z,14.80
2023-05-19T07:48:27.666Z,15.10
2023-05-19T07:51:16.256Z,15.40
2023-05-19T07:54:05.503Z,15.60
2023-05-19T07:56:52.473Z,15.70
2023-05-19T07:59:39.357Z,15.90
2023-05-19T08:02:26.415Z,16.00
2023-05-19T08:05:13.305Z,15.90
2023-05-19T08:08:00.144Z,15.90
2023-05-19T08:10:46.997Z,15.90
2023-05-19T08:13:34.796Z,15.90
2023-05-19T08:16:21.776Z,16.00
2023-05-19T08:19:09.288Z,16.10
2023-05-19T08:21:56.272Z,16.20
2023-05-19T08:24:43.317Z,16.40
2023-05-19T08:27:30.315Z,16.60
2023-05-19T08:30:17.228Z,16.80
2023-05-19T08:33:04.338Z,16.90
2023-05-19T08:35:51.477Z,17.00
2023-05-19T08:38:38.343Z,17.10
2023-05-19T08:41:25.216Z,17.20
2023-05-19T08:44:12.076Z,17.40
2023-05-19T08:47:02.843Z,17.60
2023-05-19T08:49:53.499Z,17.70
2023-05-19T08:52:53.282Z,17.60
2023-05-19T08:55:55.329Z,17.50
2023-05-19T08:58:44.147Z,17.30
2023-05-19T09:01:31.513Z,17.40
2023-05-19T09:04:19.140Z,17.60
2023-05-19T09:07:06.623Z,17.90
2023-05-19T09:09:53.608Z,18.10
2023-05-19T09:12:48.860Z,18.20
2023-05-19T09:15:39.210Z,18.50
2023-05-19T09:18:26.586Z,18.70
2023-05-19T09:21:13.466Z,18.60
2023-05-19T09:24:08.263Z,18.30
2023-05-19T09:27:00.041Z,18.00
2023-05-19T09:29:48.925Z,17.60
2023-05-19T09:32:35.990Z,17.50
2023-05-19T09:35:22.925Z,17.60
2023-05-19T09:38:09.810Z,18.00
2023-05-19T09:40:58.123Z,18.40
2023-05-19T09:43:55.003Z,18.60
2023-05-19T09:46:51.111Z,18.40
2023-05-19T09:49:45.937Z,18.20
2023-05-19T09:52:35.973Z,18.00
2023-05-19T09:55:26.895Z,17.80
2023-05-19T09:58:18.721Z,17.60
2023-05-19T10:01:06.497Z,17.60
2023-05-19T10:03:57.051Z,17.50
2023-05-19T10:06:44.854Z,17.40
2023-05-19T10:09:32.702Z,17.50
2023-05-19T10:12:20.422Z,17.80
2023-05-19T10:15:13.043Z,18.40
2023-05-19T10:18:03.070Z,19.00
2023-05-19T10:20:51.247Z,19.40
2023-05-19T10:23:38.665Z,19.50
2023-05-19T10:26:26.603Z,19.50
2023-05-19T10:29:16.686Z,19.40
2023-05-19T10:32:10.538Z,19.40
2023-05-19T10:35:25.775Z,19.40
2023-05-19T10:38:46.340Z,19.40
2023-05-19T10:41:51.074Z,18.80
2023-05-19T10:44:58.490Z,18.40
2023-05-19T10:47:45.966Z,18.20
2023-05-19T10:50:37.822Z,17.90
2023-05-19T10:53:34.355Z,17.80
2023-05-19T10:56:36.405Z,17.80
2023-05-19T10:59:35.296Z,17.70
2023-05-19T11:02:39.849Z,17.40
2023-05-19T11:05:30.352Z,17.20
2023-05-19T11:08:18.708Z,17.20
2023-05-19T11:11:16.911Z,17.20
2023-05-19T11:14:04.482Z,17.30
2023-05-19T11:16:52.439Z,17.40
2023-05-19T11:19:41.898Z,17.50
2023-05-19T11:22:29.460Z,17.70
2023-05-19T11:25:38.929Z,17.90
2023-05-19T11:28:26.746Z,17.90
2023-05-19T11:31:13.773Z,17.90
2023-05-19T11:34:01.043Z,17.70
2023-05-19T11:36:48.863Z,17.70
2023-05-19T11:39:36.225Z,17.70
2023-05-19T11:42:23.676Z,17.80
2023-05-19T11:45:10.882Z,17.90
2023-05-19T11:48:02.374Z,18.00
2023-05-19T11:50:50.445Z,18.10
2023-05-19T11:53:38.681Z,18.20
2023-05-19T11:56:25.711Z,18.10
2023-05-19T11:59:12.592Z,18.10
2023-05-19T12:02:16.715Z,18.10
2023-05-19T12:05:03.775Z,18.00
2023-05-19T12:07:52.068Z,18.00
2023-05-19T12:10:39.895Z,18.20
2023-05-19T12:13:28.871Z,18.40
2023-05-19T12:16:15.873Z,18.60
2023-05-19T12:19:06.600Z,18.60
2023-05-19T12:21:54.305Z,18.60
2023-05-19T12:24:42.829Z,18.50
2023-05-19T12:27:29.842Z,18.40
2023-05-19T12:30:17.325Z,18.30
2023-05-19T12:33:04.458Z,18.20
2023-05-19T12:35:51.887Z,18.20
2023-05-19T12:38:39.609Z,18.20
2023-05-19T12:41:27.374Z,18.10
2023-05-19T12:44:17.680Z,18.00
2023-05-19T12:47:07.741Z,17.80
2023-05-19T12:50:05.613Z,17.50
2023-05-19T12:52:53.429Z,17.20
2023-05-19T12:55:45.161Z,16.90
2023-05-19T12:58:34.333Z,16.60
2023-05-19T13:01:23.160Z,16.50
2023-05-19T13:04:10.394Z,16.40
2023-05-19T13:06:57.493Z,16.50
2023-05-19T13:09:44.848Z,16.60
2023-05-19T13:12:31.853Z,16.70
2023-05-19T13:15:18.713Z,16.80
2023-05-19T13:18:11.336Z,16.90
2023-05-19T13:20:58.255Z,16.90
2023-05-19T13:23:45.105Z,17.00
2023-05-19T13:26:31.950Z,17.10
2023-05-19T13:29:18.888Z,17.10
2023-05-19T13:32:06.175Z,17.10
2023-05-19T13:34:53.070Z,17.00
2023-05-19T13:37:40.108Z,17.10
2023-05-19T13:40:28.205Z,17.00
2023-05-19T13:43:15.232Z,16.90
2023-05-19T13:46:02.103Z,16.80
2023-05-19T13:48:50.504Z,16.60
2023-05-19T13:51:37.737Z,16.60
2023-05-19T13:54:24.775Z,16.60
2023-05-19T13:57:12.009Z,16.60
2023-05-19T14:00:03.253Z,16.50
2023-05-19T14:02:50.922Z,16.50
2023-05-19T14:05:38.076Z,16.40
2023-05-19T14:08:25.151Z,16.40
2023-05-19T14:11:19.773Z,16.40
2023-05-19T14:14:08.037Z,16.40
2023-05-19T14:16:56.360Z,16.50
2023-05-19T14:19:43.200Z,16.40
2023-05-19T14:22:33.112Z,16.30
2023-05-19T14:25:20.232Z,16.20
2023-05-19T14:28:07.130Z,16.10
2023-05-19T14:30:54.239Z,15.90
2023-05-19T14:33:41.786Z,15.90
2023-05-19T14:36:28.793Z,15.90
2023-05-19T14:39:15.790Z,15.90
2023-05-19T14:42:02.691Z,15.80
2023-05-19T14:44:49.700Z,15.80
2023-05-19T14:47:36.635Z,15.80
2023-05-19T14:50:23.667Z,15.80
2023-05-19T14:53:10.950Z,15.90
2023-05-19T14:55:57.813Z,16.00
2023-05-19T14:58:44.696Z,16.00
2023-05-19T15:01:31.640Z,16.00
2023-05-19T15:04:18.583Z,16.00
2023-05-19T15:07:10.422Z,15.90
2023-05-19T15:09:57.999Z,15.90
2023-05-19T15:12:44.905Z,15.80
2023-05-19T15:15:32.013Z,15.70
2023-05-19T15:18:19.085Z,15.60
2023-05-19T15:21:06.093Z,15.50
2023-05-19T15:23:52.948Z,15.50
2023-05-19T15:26:40.003Z,15.40
2023-05-19T15:29:26.882Z,15.40
2023-05-19T15:32:15.115Z,15.50
2023-05-19T15:35:02.058Z,15.50
2023-05-19T15:37:51.623Z,15.50
2023-05-19T15:40:41.405Z,15.50
2023-05-19T15:43:28.245Z,15.50
2023-05-19T15:46:16.115Z,15.40
2023-05-19T15:49:03.659Z,15.40
2023-05-19T15:51:50.592Z,15.40
2023-05-19T15:54:37.509Z,15.30
2023-05-19T15:57:26.850Z,15.20
2023-05-19T16:00:14.302Z,15.20
2023-05-19T16:03:04.373Z,15.10
2023-05-19T16:05:52.771Z,14.90
2023-05-19T16:08:39.691Z,14.90
2023-05-19T16:11:26.853Z,14.90
2023-05-19T16:14:14.634Z,14.80
2023-05-19T16:17:01.371Z,14.80
2023-05-19T16:19:48.236Z,14.80
2023-05-19T16:22:35.230Z,14.70
2023-05-19T16:25:24.439Z,14.70
2023-05-19T16:28:11.361Z,14.70
2023-05-19T16:30:59.683Z,14.70
2023-05-19T16:33:46.562Z,14.70
2023-05-19T16:36:33.560Z,14.70
2023-05-19T16:39:22.477Z,14.60
2023-05-19T16:42:09.504Z,14.60
2023-05-19T16:44:56.294Z,14.60
2023-05-19T16:47:43.705Z,14.60
2023-05-19T16:50:30.826Z,14.60
2023-05-19T16:53:17.905Z,14.50
2023-05-19T16:56:07.781Z,14.50
2023-05-19T16:58:57.660Z,14.40
2023-05-19T17:01:44.845Z,14.40
2023-05-19T17:04:31.782Z,14.30
2023-05-19T17:07:18.742Z,14.30
2023-05-19T17:10:06.169Z,14.30
2023-05-19T17:12:53.123Z,14.30
2023-05-19T17:15:42.890Z,14.20
2023-05-19T17:18:31.373Z,14.20
2023-05-19T17:21:18.386Z,14.20
2023-05-19T17:24:06.507Z,14.10
2023-05-19T17:26:55.931Z,14.10
2023-05-19T17:29:42.880Z,14.00
2023-05-19T17:32:35.795Z,14.00
2023-05-19T17:35:27.054Z,14.00
2023-05-19T17:38:15.357Z,13.90
2023-05-19T17:41:13.705Z,14.00
2023-05-19T17:44:00.822Z,14.00
2023-05-19T17:46:50.871Z,14.00
2023-05-19T17:49:38.448Z,13.90
2023-05-19T17:52:26.534Z,13.90
2023-05-19T17:55:13.952Z,13.90
2023-05-19T17:58:01.284Z,13.90
2023-05-19T18:00:48.813Z,13.80
2023-05-19T18:03:36.222Z,13.80
2023-05-19T18:06:25.429Z,13.80
2023-05-19T18:09:14.442Z,13.80
2023-05-19T18:12:02.528Z,13.80
2023-05-19T18:14:52.416Z,13.80
2023-05-19T18:17:39.479Z,13.70
2023-05-19T18:20:26.437Z,13.70
2023-05-19T18:23:13.541Z,13.60
2023-05-19T18:26:00.447Z,13.60
2023-05-19T18:28:48.619Z,13.60
2023-05-19T18:31:36.723Z,13.50
2023-05-19T18:34:26.224Z,13.40
2023-05-19T18:37:13.113Z,13.40
2023-05-19T18:40:01.443Z,13.30
2023-05-19T18:42:49.430Z,13.30
2023-05-19T18:45:37.069Z,13.30
2023-05-19T18:48:28.680Z,13.30
2023-05-19T18:51:15.925Z,13.20
2023-05-19T18:54:03.040Z,13.20
2023-05-19T18:56:50.069Z,13.20
2023-05-19T18:59:37.009Z,13.20
2023-05-19T19:02:23.923Z,13.10
2023-05-19T19:05:10.894Z,13.10
2023-05-19T19:07:58.076Z,13.10
2023-05-19T19:10:45.204Z,13.00
2023-05-19T19:13:34.907Z,13.00
2023-05-19T19:16:21.860Z,12.90
2023-05-19T19:19:08.891Z,13.00
2023-05-19T19:21:58.612Z,13.00
2023-05-19T19:24:51.458Z,12.90
2023-05-19T19:27:38.333Z,12.90
2023-05-19T19:30:27.871Z,12.90
2023-05-19T19:33:17.291Z,12.90
2023-05-19T19:36:04.849Z,12.90
2023-05-19T19:38:51.734Z,12.90
2023-05-19T19:41:40.906Z,12.80
2023-05-19T19:44:27.735Z,12.80
2023-05-19T19:47:21.859Z,12.80
2023-05-19T19:50:13.757Z,12.80
2023-05-19T19:53:04.794Z,12.70
2023-05-19T19:56:01.483Z,12.70
2023-05-19T19:58:48.427Z,12.70
2023-05-19T20:01:35.500Z,12.70
2023-05-19T20:04:25.111Z,12.70
2023-05-19T20:07:12.618Z,12.60
2023-05-19T20:09:59.982Z,12.60
2023-05-19T20:12:47.879Z,12.60
2023-05-19T20:15:34.794Z,12.60
2023-05-19T20:18:29.804Z,12.60
2023-05-19T20:21:19.990Z,12.50
2023-05-19T20:24:06.998Z,12.60
2023-05-19T20:26:54.000Z,12.60
2023-05-19T20:29:42.791Z,12.60
2023-05-19T20:32:29.728Z,12.50
2023-05-19T20:35:17.112Z,12.50
2023-05-19T20:38:06.874Z,12.50
2023-05-19T20:41:01.763Z,12.50
2023-05-19T20:43:48.653Z,12.50
2023-05-19T20:46:35.867Z,12.50
2023-05-19T20:49:22.901Z,12.50
2023-05-19T20:52:10.873Z,12.60
2023-05-19T20:54:57.750Z,12.50
2023-05-19T20:57:44.822Z,12.50
2023-05-19T21:01:04.064Z,12.50
2023-05-19T21:03:52.652Z,12.50
2023-05-19T21:06:42.023Z,12.50
2023-05-19T21:09:29.027Z,12.50
2023-05-19T21:12:16.493Z,12.50
2023-05-19T21:15:03.797Z,12.50
2023-05-19T21:17:50.843Z,12.50
2023-05-19T21:20:38.578Z,12.50
2023-05-19T21:23:25.585Z,12.50
2023-05-19T21:26:12.431Z,12.50
2023-05-19T21:28:59.324Z,12.50
2023-05-19T21:31:46.241Z,12.50
2023-05-19T21:34:36.266Z,12.50
2023-05-19T21:37:23.172Z,12.50
2023-05-19T21:40:10.428Z,12.40
2023-05-19T21:42:57.266Z,12.40
2023-05-19T21:45:44.167Z,12.40
2023-05-19T21:48:31.088Z,12.40
2023-05-19T21:51:18.038Z,12.30
2023-05-19T21:54:04.904Z,12.40
2023-05-19T21:56:51.818Z,12.40
2023-05-19T21:59:38.975Z,12.40
2023-05-19T22:02:26.281Z,12.40
2023-05-19T22:05:13.119Z,12.40
2023-05-19T22:07:59.956Z,12.40
2023-05-19T22:10:53.152Z,12.30
2023-05-19T22:13:41.198Z,12.40
2023-05-19T22:16:28.205Z,12.40
2023-05-19T22:19:15.367Z,12.40
2023-05-19T22:22:13.275Z,12.40
2023-05-19T22:25:02.044Z,12.40
2023-05-19T22:27:48.904Z,12.30
2023-05-19T22:30:38.592Z,12.30
2023-05-19T22:33:28.094Z,12.30
2023-05-19T22:36:19.290Z,12.20
2023-05-19T22:39:06.156Z,12.20
2023-05-19T22:41:52.996Z,12.30
2023-05-19T22:44:39.794Z,12.30
2023-05-19T22:47:26.817Z,12.30
2023-05-19T22:50:17.444Z,12.30
2023-05-19T22:53:04.313Z,12.30
2023-05-19T22:55:51.432Z,12.30
2023-05-19T22:58:38.353Z,12.30
2023-05-19T23:01:25.228Z,12.30
2023-05-19T23:04:12.312Z,12.30
2023-05-19T23:06:59.602Z,12.40
2023-05-19T23:09:46.736Z,12.40
2023-05-19T23:12:33.564Z,12.30
2023-05-19T23:15:20.560Z,12.30
2023-05-19T23:18:08.732Z,12.30
2023-05-19T23:20:55.806Z,12.30
2023-05-19T23:23:42.781Z,12.20
2023-05-19T23:26:29.649Z,12.30
2023-05-19T23:29:16.568Z,12.20
2023-05-19T23:32:03.589Z,12.30
2023-05-19T23:34:50.514Z,12.20
2023-05-19T23:37:37.345Z,12.30
2023-05-19T23:40:24.178Z,12.30
2023-05-19T23:43:11.156Z,12.30
2023-05-19T23:45:58.458Z,12.30
2023-05-19T23:48:45.613Z,12.30
2023-05-19T23:51:32.574Z,12.30
2023-05-19T23:54:19.444Z,12.30
2023-05-19T23:57:06.286Z,12.30
2023-05-19T23:59:53.126Z,12.30
